sensor_id;sensor_type;location;lat;lon;timestamp;temperature;humidity
67750;DHT22;54550;48.838;8.828;2023-02-13T00:00:00;-0.10;99.90
67750;DHT22;54550;48.838;8.828;2023-02-13T00:02:26;0.20;99.90
67750;DHT22;54550;48.838;8.828;2023-02-13T00:04:51;0.40;99.90
67750;DHT22;54550;48.838;8.828;2023-02-13T00:07:17;0.30;99.90
67750;DHT22;54550;48.838;8.828;2023-02-13T00:09:43;0.20;99.90
67750;DHT22;54550;48.838;8.828;2023-02-13T00:12:09;0.00;99.90
67750;DHT22;54550;48.838;8.828;2023-02-13T00:14:36;-0.20;99.90
67750;DHT22;54550;48.838;8.828;2023-02-13T00:17:02;-0.30;99.90
67750;DHT22;54550;48.838;8.828;2023-02-13T00:19:27;-0.20;99.90
67750;DHT22;54550;48.838;8.828;2023-02-13T00:21:53;-0.20;99.90
67750;DHT22;54550;48.838;8.828;2023-02-13T00:24:18;-0.20;99.90
67750;DHT22;54550;48.838;8.828;2023-02-13T00:26:44;-0.10;99.90
67750;DHT22;54550;48.838;8.828;2023-02-13T00:29:09;-0.20;99.90
67750;DHT22;54550;48.838;8.828;2023-02-13T00:31:35;-0.20;99.90
67750;DHT22;54550;48.838;8.828;2023-02-13T00:34:00;-0.10;99.90
67750;DHT22;54550;48.838;8.828;2023-02-13T00:36:26;-0.10;99.90
67750;DHT22;54550;48.838;8.828;2023-02-13T00:38:52;0.10;99.90
67750;DHT22;54550;48.838;8.828;2023-02-13T00:41:18;0.20;99.90
67750;DHT22;54550;48.838;8.828;2023-02-13T00:43:44;0.20;99.90
67750;DHT22;54550;48.838;8.828;2023-02-13T00:46:09;0.30;99.90
67750;DHT22;54550;48.838;8.828;2023-02-13T00:48:35;0.20;99.90
67750;DHT22;54550;48.838;8.828;2023-02-13T00:51:01;0.30;99.90
67750;DHT22;54550;48.838;8.828;2023-02-13T00:53:27;0.20;99.90
67750;DHT22;54550;48.838;8.828;2023-02-13T00:55:53;0.30;99.90
67750;DHT22;54550;48.838;8.828;2023-02-13T00:58:18;0.30;99.90
67750;DHT22;54550;48.838;8.828;2023-02-13T01:00:44;0.10;99.90
67750;DHT22;54550;48.838;8.828;2023-02-13T01:03:13;0.00;99.90
67750;DHT22;54550;48.838;8.828;2023-02-13T01:05:39;0.00;99.90
67750;DHT22;54550;48.838;8.828;2023-02-13T01:08:05;-0.10;99.90
67750;DHT22;54550;48.838;8.828;2023-02-13T01:10:30;-0.10;99.90
67750;DHT22;54550;48.838;8.828;2023-02-13T01:12:56;-0.20;99.90
67750;DHT22;54550;48.838;8.828;2023-02-13T01:15:21;-0.20;99.90
67750;DHT22;54550;48.838;8.828;2023-02-13T01:17:47;-0.20;99.90
67750;DHT22;54550;48.838;8.828;2023-02-13T01:20:12;-0.20;99.90
67750;DHT22;54550;48.838;8.828;2023-02-13T01:22:39;-0.30;99.90
67750;DHT22;54550;48.838;8.828;2023-02-13T01:25:06;-0.30;99.90
67750;DHT22;54550;48.838;8.828;2023-02-13T01:27:31;-0.20;99.90
67750;DHT22;54550;48.838;8.828;2023-02-13T01:29:57;-0.20;99.90
67750;DHT22;54550;48.838;8.828;2023-02-13T01:32:23;-0.30;99.90
67750;DHT22;54550;48.838;8.828;2023-02-13T01:34:49;-0.30;99.90
67750;DHT22;54550;48.838;8.828;2023-02-13T01:37:14;-0.40;99.90
67750;DHT22;54550;48.838;8.828;2023-02-13T01:39:40;-0.50;99.90
67750;DHT22;54550;48.838;8.828;2023-02-13T01:42:10;-0.70;99.90
67750;DHT22;54550;48.838;8.828;2023-02-13T01:44:49;-0.60;99.90
67750;DHT22;54550;48.838;8.828;2023-02-13T01:47:26;-0.70;99.90
67750;DHT22;54550;48.838;8.828;2023-02-13T01:50:01;-1.00;99.90
67750;DHT22;54550;48.838;8.828;2023-02-13T01:52:27;-1.30;99.90
67750;DHT22;54550;48.838;8.828;2023-02-13T01:54:53;-1.20;99.90
67750;DHT22;54550;48.838;8.828;2023-02-13T01:57:22;-1.40;99.90
67750;DHT22;54550;48.838;8.828;2023-02-13T02:00:00;-1.40;99.90
67750;DHT22;54550;48.838;8.828;2023-02-13T02:02:27;-1.20;99.90
67750;DHT22;54550;48.838;8.828;2023-02-13T02:04:55;-1.10;99.90
67750;DHT22;54550;48.838;8.828;2023-02-13T02:07:23;-1.00;99.90
67750;DHT22;54550;48.838;8.828;2023-02-13T02:09:52;-1.00;99.90
67750;DHT22;54550;48.838;8.828;2023-02-13T02:15:01;-0.90;99.90
67750;DHT22;54550;48.838;8.828;2023-02-13T02:17:27;-0.80;99.90
67750;DHT22;54550;48.838;8.828;2023-02-13T02:23:32;-0.60;99.90
67750;DHT22;54550;48.838;8.828;2023-02-13T02:42:56;-0.60;99.90
67750;DHT22;54550;48.838;8.828;2023-02-13T02:45:39;-0.60;99.90
67750;DHT22;54550;48.838;8.828;2023-02-13T02:48:32;-0.60;99.90
67750;DHT22;54550;48.838;8.828;2023-02-13T02:51:29;-0.60;99.90
67750;DHT22;54550;48.838;8.828;2023-02-13T02:57:02;-0.80;99.90
67750;DHT22;54550;48.838;8.828;2023-02-13T02:59:30;-0.80;99.90
67750;DHT22;54550;48.838;8.828;2023-02-13T03:02:16;-1.00;99.90
67750;DHT22;54550;48.838;8.828;2023-02-13T03:05:02;-1.10;99.90
67750;DHT22;54550;48.838;8.828;2023-02-13T03:07:46;-1.20;99.90
67750;DHT22;54550;48.838;8.828;2023-02-13T03:10:28;-1.30;99.90
67750;DHT22;54550;48.838;8.828;2023-02-13T03:13:17;-1.50;99.90
67750;DHT22;54550;48.838;8.828;2023-02-13T03:15:57;-1.60;99.90
67750;DHT22;54550;48.838;8.828;2023-02-13T03:18:46;-1.70;99.90
67750;DHT22;54550;48.838;8.828;2023-02-13T03:24:43;-1.90;99.90
67750;DHT22;54550;48.838;8.828;2023-02-13T03:27:33;-1.90;99.90
67750;DHT22;54550;48.838;8.828;2023-02-13T03:41:30;-1.80;99.90
67750;DHT22;54550;48.838;8.828;2023-02-13T03:46:52;-1.80;99.90
67750;DHT22;54550;48.838;8.828;2023-02-13T03:49:21;-1.70;99.90
67750;DHT22;54550;48.838;8.828;2023-02-13T03:52:14;-1.70;99.90
67750;DHT22;54550;48.838;8.828;2023-02-13T03:54:48;-1.60;99.90
67750;DHT22;54550;48.838;8.828;2023-02-13T03:57:37;-1.70;99.90
67750;DHT22;54550;48.838;8.828;2023-02-13T04:00:27;-1.80;99.90
67750;DHT22;54550;48.838;8.828;2023-02-13T04:03:00;-1.90;99.90
67750;DHT22;54550;48.838;8.828;2023-02-13T04:05:34;-2.00;99.90
67750;DHT22;54550;48.838;8.828;2023-02-13T04:08:01;-2.10;99.90
67750;DHT22;54550;48.838;8.828;2023-02-13T04:10:29;-2.20;99.90
67750;DHT22;54550;48.838;8.828;2023-02-13T04:13:02;-2.10;99.90
67750;DHT22;54550;48.838;8.828;2023-02-13T04:15:42;-1.90;99.90
67750;DHT22;54550;48.838;8.828;2023-02-13T04:18:27;-1.80;99.90
67750;DHT22;54550;48.838;8.828;2023-02-13T04:20:53;-1.70;99.90
67750;DHT22;54550;48.838;8.828;2023-02-13T04:23:19;-1.90;99.90
67750;DHT22;54550;48.838;8.828;2023-02-13T04:25:48;-1.90;99.90
67750;DHT22;54550;48.838;8.828;2023-02-13T04:28:14;-1.90;99.90
67750;DHT22;54550;48.838;8.828;2023-02-13T04:30:39;-1.80;99.90
67750;DHT22;54550;48.838;8.828;2023-02-13T04:33:05;-1.80;99.90
67750;DHT22;54550;48.838;8.828;2023-02-13T04:35:30;-1.80;99.90
67750;DHT22;54550;48.838;8.828;2023-02-13T04:37:56;-1.80;99.90
67750;DHT22;54550;48.838;8.828;2023-02-13T04:40:21;-1.80;99.90
67750;DHT22;54550;48.838;8.828;2023-02-13T04:42:47;-1.90;99.90
67750;DHT22;54550;48.838;8.828;2023-02-13T04:45:13;-2.00;99.90
67750;DHT22;54550;48.838;8.828;2023-02-13T04:47:39;-2.00;99.90
67750;DHT22;54550;48.838;8.828;2023-02-13T04:50:05;-2.00;99.90
67750;DHT22;54550;48.838;8.828;2023-02-13T04:52:31;-2.00;99.90
67750;DHT22;54550;48.838;8.828;2023-02-13T04:54:56;-2.10;99.90
67750;DHT22;54550;48.838;8.828;2023-02-13T04:57:22;-2.20;99.90
67750;DHT22;54550;48.838;8.828;2023-02-13T04:59:47;-2.20;99.90
67750;DHT22;54550;48.838;8.828;2023-02-13T05:02:13;-2.10;99.90
67750;DHT22;54550;48.838;8.828;2023-02-13T05:04:38;-2.10;99.90
67750;DHT22;54550;48.838;8.828;2023-02-13T05:07:04;-2.00;99.90
67750;DHT22;54550;48.838;8.828;2023-02-13T05:09:29;-2.10;99.90
67750;DHT22;54550;48.838;8.828;2023-02-13T05:11:55;-2.20;99.90
67750;DHT22;54550;48.838;8.828;2023-02-13T05:14:21;-2.30;99.90
67750;DHT22;54550;48.838;8.828;2023-02-13T05:16:46;-2.50;99.90
67750;DHT22;54550;48.838;8.828;2023-02-13T05:19:14;-2.50;99.90
67750;DHT22;54550;48.838;8.828;2023-02-13T05:21:40;-2.60;99.90
67750;DHT22;54550;48.838;8.828;2023-02-13T05:24:24;-2.60;99.90
67750;DHT22;54550;48.838;8.828;2023-02-13T05:26:50;-2.70;99.90
67750;DHT22;54550;48.838;8.828;2023-02-13T05:29:16;-2.80;99.90
67750;DHT22;54550;48.838;8.828;2023-02-13T05:31:45;-2.70;99.90
67750;DHT22;54550;48.838;8.828;2023-02-13T05:34:11;-2.60;99.90
67750;DHT22;54550;48.838;8.828;2023-02-13T05:36:37;-2.60;99.90
67750;DHT22;54550;48.838;8.828;2023-02-13T05:39:03;-2.70;99.90
67750;DHT22;54550;48.838;8.828;2023-02-13T05:41:28;-2.80;99.90
67750;DHT22;54550;48.838;8.828;2023-02-13T05:43:54;-2.80;99.90
67750;DHT22;54550;48.838;8.828;2023-02-13T05:46:20;-2.80;99.90
67750;DHT22;54550;48.838;8.828;2023-02-13T05:48:45;-2.80;99.90
67750;DHT22;54550;48.838;8.828;2023-02-13T05:51:11;-2.70;99.90
67750;DHT22;54550;48.838;8.828;2023-02-13T05:53:36;-2.70;99.90
67750;DHT22;54550;48.838;8.828;2023-02-13T05:56:05;-2.70;99.90
67750;DHT22;54550;48.838;8.828;2023-02-13T05:58:32;-2.70;99.90
67750;DHT22;54550;48.838;8.828;2023-02-13T06:00:58;-2.60;99.90
67750;DHT22;54550;48.838;8.828;2023-02-13T06:03:25;-2.60;99.90
67750;DHT22;54550;48.838;8.828;2023-02-13T06:05:53;-2.60;99.90
67750;DHT22;54550;48.838;8.828;2023-02-13T06:08:19;-2.40;99.90
67750;DHT22;54550;48.838;8.828;2023-02-13T06:10:46;-2.30;99.90
67750;DHT22;54550;48.838;8.828;2023-02-13T06:13:12;-2.30;99.90
67750;DHT22;54550;48.838;8.828;2023-02-13T06:15:38;-2.40;99.90
67750;DHT22;54550;48.838;8.828;2023-02-13T06:18:03;-2.40;99.90
67750;DHT22;54550;48.838;8.828;2023-02-13T06:20:29;-2.50;99.90
67750;DHT22;54550;48.838;8.828;2023-02-13T06:22:54;-2.60;99.90
67750;DHT22;54550;48.838;8.828;2023-02-13T06:25:20;-2.40;99.90
67750;DHT22;54550;48.838;8.828;2023-02-13T06:27:46;-2.30;99.90
67750;DHT22;54550;48.838;8.828;2023-02-13T06:30:13;-2.40;99.90
67750;DHT22;54550;48.838;8.828;2023-02-13T06:32:39;-2.40;99.90
67750;DHT22;54550;48.838;8.828;2023-02-13T06:35:05;-2.50;99.90
67750;DHT22;54550;48.838;8.828;2023-02-13T06:37:30;-2.50;99.90
67750;DHT22;54550;48.838;8.828;2023-02-13T06:39:56;-2.60;99.90
67750;DHT22;54550;48.838;8.828;2023-02-13T06:42:21;-2.60;99.90
67750;DHT22;54550;48.838;8.828;2023-02-13T06:44:47;-2.60;99.90
67750;DHT22;54550;48.838;8.828;2023-02-13T06:47:16;-2.60;99.90
67750;DHT22;54550;48.838;8.828;2023-02-13T06:49:46;-2.70;99.90
67750;DHT22;54550;48.838;8.828;2023-02-13T06:52:11;-2.70;99.90
67750;DHT22;54550;48.838;8.828;2023-02-13T06:54:37;-2.70;99.90
67750;DHT22;54550;48.838;8.828;2023-02-13T06:57:03;-2.60;99.90
67750;DHT22;54550;48.838;8.828;2023-02-13T06:59:28;-2.50;99.90
67750;DHT22;54550;48.838;8.828;2023-02-13T07:01:54;-2.50;99.90
67750;DHT22;54550;48.838;8.828;2023-02-13T07:04:19;-2.40;99.90
67750;DHT22;54550;48.838;8.828;2023-02-13T07:06:45;-2.40;99.90
67750;DHT22;54550;48.838;8.828;2023-02-13T07:09:10;-2.30;99.90
67750;DHT22;54550;48.838;8.828;2023-02-13T07:11:38;-2.30;99.90
67750;DHT22;54550;48.838;8.828;2023-02-13T07:14:06;-2.20;99.90
67750;DHT22;54550;48.838;8.828;2023-02-13T07:16:31;-2.10;99.90
67750;DHT22;54550;48.838;8.828;2023-02-13T07:18:57;-2.10;99.90
67750;DHT22;54550;48.838;8.828;2023-02-13T07:21:22;-2.00;99.90
67750;DHT22;54550;48.838;8.828;2023-02-13T07:23:48;-2.00;99.90
67750;DHT22;54550;48.838;8.828;2023-02-13T07:26:14;-1.90;99.90
67750;DHT22;54550;48.838;8.828;2023-02-13T07:28:40;-1.70;99.90
67750;DHT22;54550;48.838;8.828;2023-02-13T07:31:06;-1.70;99.90
67750;DHT22;54550;48.838;8.828;2023-02-13T07:33:35;-1.50;99.90
67750;DHT22;54550;48.838;8.828;2023-02-13T07:36:00;-1.40;99.90
67750;DHT22;54550;48.838;8.828;2023-02-13T07:38:31;-1.30;99.90
67750;DHT22;54550;48.838;8.828;2023-02-13T07:41:01;-1.20;99.90
67750;DHT22;54550;48.838;8.828;2023-02-13T07:43:28;-1.10;99.90
67750;DHT22;54550;48.838;8.828;2023-02-13T07:45:57;-1.00;99.90
67750;DHT22;54550;48.838;8.828;2023-02-13T07:48:23;-0.90;99.90
67750;DHT22;54550;48.838;8.828;2023-02-13T07:50:49;-0.80;99.90
67750;DHT22;54550;48.838;8.828;2023-02-13T07:53:15;-0.70;99.90
67750;DHT22;54550;48.838;8.828;2023-02-13T07:55:40;-0.70;99.90
67750;DHT22;54550;48.838;8.828;2023-02-13T07:58:06;-0.60;99.90
67750;DHT22;54550;48.838;8.828;2023-02-13T08:00:32;-0.50;99.90
67750;DHT22;54550;48.838;8.828;2023-02-13T08:02:59;-0.50;99.90
67750;DHT22;54550;48.838;8.828;2023-02-13T08:05:24;-0.30;99.90
67750;DHT22;54550;48.838;8.828;2023-02-13T08:07:50;-0.30;99.90
67750;DHT22;54550;48.838;8.828;2023-02-13T08:10:16;-0.20;99.90
67750;DHT22;54550;48.838;8.828;2023-02-13T08:13:00;-0.10;99.90
67750;DHT22;54550;48.838;8.828;2023-02-13T08:15:26;0.00;99.90
67750;DHT22;54550;48.838;8.828;2023-02-13T08:17:52;0.00;99.90
67750;DHT22;54550;48.838;8.828;2023-02-13T08:20:18;0.00;99.90
67750;DHT22;54550;48.838;8.828;2023-02-13T08:22:43;0.10;99.90
67750;DHT22;54550;48.838;8.828;2023-02-13T08:25:09;0.10;99.90
67750;DHT22;54550;48.838;8.828;2023-02-13T08:27:35;0.20;99.90
67750;DHT22;54550;48.838;8.828;2023-02-13T08:30:00;0.30;99.90
67750;DHT22;54550;48.838;8.828;2023-02-13T08:32:28;0.40;99.90
67750;DHT22;54550;48.838;8.828;2023-02-13T08:34:54;0.50;99.90
67750;DHT22;54550;48.838;8.828;2023-02-13T08:37:19;0.60;99.90
67750;DHT22;54550;48.838;8.828;2023-02-13T08:39:45;0.70;99.90
67750;DHT22;54550;48.838;8.828;2023-02-13T08:42:10;0.90;99.90
67750;DHT22;54550;48.838;8.828;2023-02-13T08:44:36;0.90;99.90
67750;DHT22;54550;48.838;8.828;2023-02-13T08:47:05;1.10;99.90
67750;DHT22;54550;48.838;8.828;2023-02-13T08:49:32;1.20;99.90
67750;DHT22;54550;48.838;8.828;2023-02-13T08:52:01;1.30;99.90
67750;DHT22;54550;48.838;8.828;2023-02-13T08:54:26;1.50;99.90
67750;DHT22;54550;48.838;8.828;2023-02-13T08:56:52;1.80;99.90
67750;DHT22;54550;48.838;8.828;2023-02-13T08:59:17;1.80;99.90
67750;DHT22;54550;48.838;8.828;2023-02-13T09:01:43;2.10;99.90
67750;DHT22;54550;48.838;8.828;2023-02-13T09:04:09;2.30;99.90
67750;DHT22;54550;48.838;8.828;2023-02-13T09:06:34;2.60;99.90
67750;DHT22;54550;48.838;8.828;2023-02-13T09:09:00;3.00;99.90
67750;DHT22;54550;48.838;8.828;2023-02-13T09:11:25;3.80;99.90
67750;DHT22;54550;48.838;8.828;2023-02-13T09:13:54;4.40;99.90
67750;DHT22;54550;48.838;8.828;2023-02-13T09:16:20;5.00;99.90
67750;DHT22;54550;48.838;8.828;2023-02-13T09:18:47;5.40;99.90
67750;DHT22;54550;48.838;8.828;2023-02-13T09:21:13;5.70;99.90
67750;DHT22;54550;48.838;8.828;2023-02-13T09:23:39;5.80;99.90
67750;DHT22;54550;48.838;8.828;2023-02-13T09:26:09;6.00;99.90
67750;DHT22;54550;48.838;8.828;2023-02-13T09:28:35;6.10;99.90
67750;DHT22;54550;48.838;8.828;2023-02-13T09:31:14;6.30;99.90
67750;DHT22;54550;48.838;8.828;2023-02-13T09:33:41;6.40;99.90
67750;DHT22;54550;48.838;8.828;2023-02-13T09:36:17;6.60;99.90
67750;DHT22;54550;48.838;8.828;2023-02-13T09:38:45;7.00;99.90
67750;DHT22;54550;48.838;8.828;2023-02-13T09:41:14;7.40;99.90
67750;DHT22;54550;48.838;8.828;2023-02-13T09:43:48;7.80;99.90
67750;DHT22;54550;48.838;8.828;2023-02-13T09:46:24;8.00;99.90
67750;DHT22;54550;48.838;8.828;2023-02-13T09:48:54;8.50;99.90
67750;DHT22;54550;48.838;8.828;2023-02-13T09:51:21;8.60;99.90
67750;DHT22;54550;48.838;8.828;2023-02-13T09:53:53;8.80;99.90
67750;DHT22;54550;48.838;8.828;2023-02-13T09:56:26;8.90;99.90
67750;DHT22;54550;48.838;8.828;2023-02-13T09:59:09;9.00;99.90
67750;DHT22;54550;48.838;8.828;2023-02-13T10:01:42;9.40;99.90
67750;DHT22;54550;48.838;8.828;2023-02-13T10:07:19;9.50;99.90
67750;DHT22;54550;48.838;8.828;2023-02-13T10:15:45;9.50;99.90
67750;DHT22;54550;48.838;8.828;2023-02-13T10:18:16;9.50;99.90
67750;DHT22;54550;48.838;8.828;2023-02-13T10:23:27;9.90;99.90
67750;DHT22;54550;48.838;8.828;2023-02-13T10:26:00;10.30;99.90
67750;DHT22;54550;48.838;8.828;2023-02-13T10:28:43;10.40;99.90
67750;DHT22;54550;48.838;8.828;2023-02-13T10:31:16;10.50;99.90
67750;DHT22;54550;48.838;8.828;2023-02-13T10:33:50;10.50;99.90
67750;DHT22;54550;48.838;8.828;2023-02-13T10:36:19;10.30;99.90
67750;DHT22;54550;48.838;8.828;2023-02-13T10:52:37;12.00;99.90
67750;DHT22;54550;48.838;8.828;2023-02-13T10:58:15;11.50;99.90
67750;DHT22;54550;48.838;8.828;2023-02-13T11:00:45;11.40;99.90
67750;DHT22;54550;48.838;8.828;2023-02-13T11:03:20;11.60;99.90
67750;DHT22;54550;48.838;8.828;2023-02-13T11:05:46;11.20;99.90
67750;DHT22;54550;48.838;8.828;2023-02-13T11:08:45;11.30;99.90
67750;DHT22;54550;48.838;8.828;2023-02-13T11:11:31;11.50;99.90
67750;DHT22;54550;48.838;8.828;2023-02-13T11:14:19;11.40;99.90
67750;DHT22;54550;48.838;8.828;2023-02-13T11:17:06;11.40;99.90
67750;DHT22;54550;48.838;8.828;2023-02-13T11:19:47;11.20;99.90
67750;DHT22;54550;48.838;8.828;2023-02-13T11:22:29;11.20;99.90
67750;DHT22;54550;48.838;8.828;2023-02-13T11:25:00;11.50;99.90
67750;DHT22;54550;48.838;8.828;2023-02-13T11:27:30;11.70;99.90
67750;DHT22;54550;48.838;8.828;2023-02-13T11:30:46;11.80;99.90
67750;DHT22;54550;48.838;8.828;2023-02-13T11:32:58;11.70;99.90
67750;DHT22;54550;48.838;8.828;2023-02-13T11:35:32;12.00;99.90
67750;DHT22;54550;48.838;8.828;2023-02-13T11:40:42;12.00;99.90
67750;DHT22;54550;48.838;8.828;2023-02-13T11:43:28;12.30;99.90
67750;DHT22;54550;48.838;8.828;2023-02-13T11:46:09;12.30;99.90
67750;DHT22;54550;48.838;8.828;2023-02-13T11:48:37;12.30;99.90
67750;DHT22;54550;48.838;8.828;2023-02-13T11:51:03;12.40;99.90
67750;DHT22;54550;48.838;8.828;2023-02-13T11:53:31;12.70;99.90
67750;DHT22;54550;48.838;8.828;2023-02-13T11:58:28;12.60;99.90
67750;DHT22;54550;48.838;8.828;2023-02-13T12:03:32;12.60;99.90
67750;DHT22;54550;48.838;8.828;2023-02-13T12:08:32;12.70;99.90
67750;DHT22;54550;48.838;8.828;2023-02-13T12:10:59;12.50;99.90
67750;DHT22;54550;48.838;8.828;2023-02-13T12:13:33;12.40;99.90
67750;DHT22;54550;48.838;8.828;2023-02-13T12:16:05;12.90;99.90
67750;DHT22;54550;48.838;8.828;2023-02-13T12:18:40;13.10;99.90
67750;DHT22;54550;48.838;8.828;2023-02-13T12:26:55;13.20;99.90
67750;DHT22;54550;48.838;8.828;2023-02-13T12:29:50;13.10;99.90
67750;DHT22;54550;48.838;8.828;2023-02-13T12:32:19;12.70;99.90
67750;DHT22;54550;48.838;8.828;2023-02-13T12:37:56;12.70;99.90
67750;DHT22;54550;48.838;8.828;2023-02-13T12:40:33;13.00;99.90
67750;DHT22;54550;48.838;8.828;2023-02-13T12:43:42;12.70;99.90
67750;DHT22;54550;48.838;8.828;2023-02-13T12:54:35;12.80;99.90
67750;DHT22;54550;48.838;8.828;2023-02-13T13:05:59;12.20;99.90
67750;DHT22;54550;48.838;8.828;2023-02-13T13:11:14;12.10;99.90
67750;DHT22;54550;48.838;8.828;2023-02-13T13:17:20;12.40;99.90
67750;DHT22;54550;48.838;8.828;2023-02-13T13:19:52;12.60;99.90
67750;DHT22;54550;48.838;8.828;2023-02-13T13:22:26;12.70;99.90
67750;DHT22;54550;48.838;8.828;2023-02-13T13:27:50;12.60;99.90
67750;DHT22;54550;48.838;8.828;2023-02-13T13:30:27;12.60;99.90
67750;DHT22;54550;48.838;8.828;2023-02-13T13:35:28;13.10;99.90
67750;DHT22;54550;48.838;8.828;2023-02-13T13:38:05;12.80;99.90
67750;DHT22;54550;48.838;8.828;2023-02-13T13:46:20;13.40;99.90
67750;DHT22;54550;48.838;8.828;2023-02-13T13:51:50;13.10;99.90
67750;DHT22;54550;48.838;8.828;2023-02-13T13:54:19;13.00;99.90
67750;DHT22;54550;48.838;8.828;2023-02-13T14:05:01;12.60;99.90
67750;DHT22;54550;48.838;8.828;2023-02-13T14:07:37;12.60;99.90
67750;DHT22;54550;48.838;8.828;2023-02-13T14:10:04;12.40;99.90
67750;DHT22;54550;48.838;8.828;2023-02-13T14:14:56;11.90;99.90
67750;DHT22;54550;48.838;8.828;2023-02-13T14:20:23;11.90;99.90
67750;DHT22;54550;48.838;8.828;2023-02-13T14:22:51;11.40;99.90
67750;DHT22;54550;48.838;8.828;2023-02-13T14:25:25;11.30;99.90
67750;DHT22;54550;48.838;8.828;2023-02-13T14:27:57;11.10;99.90
67750;DHT22;54550;48.838;8.828;2023-02-13T14:32:52;10.70;99.90
67750;DHT22;54550;48.838;8.828;2023-02-13T14:35:27;10.70;99.90
67750;DHT22;54550;48.838;8.828;2023-02-13T14:38:04;10.50;99.90
67750;DHT22;54550;48.838;8.828;2023-02-13T14:40:49;10.50;99.90
67750;DHT22;54550;48.838;8.828;2023-02-13T14:43:28;10.30;99.90
67750;DHT22;54550;48.838;8.828;2023-02-13T14:48:21;10.20;99.90
67750;DHT22;54550;48.838;8.828;2023-02-13T14:50:51;10.10;99.90
67750;DHT22;54550;48.838;8.828;2023-02-13T14:53:25;10.00;99.90
67750;DHT22;54550;48.838;8.828;2023-02-13T14:56:12;9.80;99.90
67750;DHT22;54550;48.838;8.828;2023-02-13T15:01:38;9.60;99.90
67750;DHT22;54550;48.838;8.828;2023-02-13T15:04:11;9.60;99.90
67750;DHT22;54550;48.838;8.828;2023-02-13T15:06:41;9.60;99.90
67750;DHT22;54550;48.838;8.828;2023-02-13T15:09:25;9.40;99.90
67750;DHT22;54550;48.838;8.828;2023-02-13T15:11:51;9.40;99.90
67750;DHT22;54550;48.838;8.828;2023-02-13T15:14:19;9.30;99.90
67750;DHT22;54550;48.838;8.828;2023-02-13T15:16:48;9.20;99.90
67750;DHT22;54550;48.838;8.828;2023-02-13T15:19:16;9.20;99.90
67750;DHT22;54550;48.838;8.828;2023-02-13T15:21:52;9.20;99.90
67750;DHT22;54550;48.838;8.828;2023-02-13T15:24:19;9.00;99.90
67750;DHT22;54550;48.838;8.828;2023-02-13T15:27:17;8.90;99.90
67750;DHT22;54550;48.838;8.828;2023-02-13T15:32:41;8.80;99.90
67750;DHT22;54550;48.838;8.828;2023-02-13T15:35:30;8.70;99.90
67750;DHT22;54550;48.838;8.828;2023-02-13T15:37:58;8.60;99.90
67750;DHT22;54550;48.838;8.828;2023-02-13T15:40:27;8.50;99.90
67750;DHT22;54550;48.838;8.828;2023-02-13T15:42:56;8.50;99.90
67750;DHT22;54550;48.838;8.828;2023-02-13T15:45:25;8.40;99.90
67750;DHT22;54550;48.838;8.828;2023-02-13T15:47:51;8.30;99.90
67750;DHT22;54550;48.838;8.828;2023-02-13T15:50:33;8.30;99.90
67750;DHT22;54550;48.838;8.828;2023-02-13T15:53:02;8.20;99.90
67750;DHT22;54550;48.838;8.828;2023-02-13T15:55:31;8.10;99.90
67750;DHT22;54550;48.838;8.828;2023-02-13T15:57:59;8.10;99.90
67750;DHT22;54550;48.838;8.828;2023-02-13T16:00:27;8.00;99.90
67750;DHT22;54550;48.838;8.828;2023-02-13T16:02:55;7.90;99.90
67750;DHT22;54550;48.838;8.828;2023-02-13T16:05:21;7.90;99.90
67750;DHT22;54550;48.838;8.828;2023-02-13T16:07:56;7.70;99.90
67750;DHT22;54550;48.838;8.828;2023-02-13T16:12:50;7.50;99.90
67750;DHT22;54550;48.838;8.828;2023-02-13T16:15:18;7.50;99.90
67750;DHT22;54550;48.838;8.828;2023-02-13T16:17:45;7.30;99.90
67750;DHT22;54550;48.838;8.828;2023-02-13T16:22:54;7.10;99.90
67750;DHT22;54550;48.838;8.828;2023-02-13T16:25:31;7.10;99.90
67750;DHT22;54550;48.838;8.828;2023-02-13T16:28:02;7.00;99.90
67750;DHT22;54550;48.838;8.828;2023-02-13T16:30:50;7.10;99.90
67750;DHT22;54550;48.838;8.828;2023-02-13T16:33:49;6.90;99.90
67750;DHT22;54550;48.838;8.828;2023-02-13T16:38:38;6.90;99.90
67750;DHT22;54550;48.838;8.828;2023-02-13T16:41:27;6.60;99.90
67750;DHT22;54550;48.838;8.828;2023-02-13T16:43:54;6.50;99.90
67750;DHT22;54550;48.838;8.828;2023-02-13T16:46:35;6.40;99.90
67750;DHT22;54550;48.838;8.828;2023-02-13T16:49:22;6.30;99.90
67750;DHT22;54550;48.838;8.828;2023-02-13T16:51:56;6.20;99.90
67750;DHT22;54550;48.838;8.828;2023-02-13T16:54:29;6.00;99.90
67750;DHT22;54550;48.838;8.828;2023-02-13T16:57:04;5.80;99.90
67750;DHT22;54550;48.838;8.828;2023-02-13T16:59:47;5.70;99.90
67750;DHT22;54550;48.838;8.828;2023-02-13T17:02:32;5.40;99.90
67750;DHT22;54550;48.838;8.828;2023-02-13T17:07:46;5.20;99.90
67750;DHT22;54550;48.838;8.828;2023-02-13T17:10:38;5.20;99.90
67750;DHT22;54550;48.838;8.828;2023-02-13T17:13:16;5.00;99.90
67750;DHT22;54550;48.838;8.828;2023-02-13T17:15:45;4.80;99.90
67750;DHT22;54550;48.838;8.828;2023-02-13T17:18:11;4.60;99.90
67750;DHT22;54550;48.838;8.828;2023-02-13T17:20:41;4.50;99.90
67750;DHT22;54550;48.838;8.828;2023-02-13T17:23:16;4.30;99.90
67750;DHT22;54550;48.838;8.828;2023-02-13T17:25:42;4.20;99.90
67750;DHT22;54550;48.838;8.828;2023-02-13T17:28:16;4.10;99.90
67750;DHT22;54550;48.838;8.828;2023-02-13T17:30:43;4.10;99.90
67750;DHT22;54550;48.838;8.828;2023-02-13T17:33:12;4.00;99.90
67750;DHT22;54550;48.838;8.828;2023-02-13T17:35:38;3.90;99.90
67750;DHT22;54550;48.838;8.828;2023-02-13T17:38:04;3.80;99.90
67750;DHT22;54550;48.838;8.828;2023-02-13T17:40:31;3.70;99.90
67750;DHT22;54550;48.838;8.828;2023-02-13T17:42:58;3.60;99.90
67750;DHT22;54550;48.838;8.828;2023-02-13T17:45:26;3.50;99.90
67750;DHT22;54550;48.838;8.828;2023-02-13T17:47:52;3.60;99.90
67750;DHT22;54550;48.838;8.828;2023-02-13T17:50:18;3.40;99.90
67750;DHT22;54550;48.838;8.828;2023-02-13T17:52:45;3.40;99.90
67750;DHT22;54550;48.838;8.828;2023-02-13T17:55:19;3.30;99.90
67750;DHT22;54550;48.838;8.828;2023-02-13T17:57:46;3.10;99.90
67750;DHT22;54550;48.838;8.828;2023-02-13T18:00:12;3.00;99.90
67750;DHT22;54550;48.838;8.828;2023-02-13T18:02:38;2.90;99.90
67750;DHT22;54550;48.838;8.828;2023-02-13T18:05:03;2.80;99.90
67750;DHT22;54550;48.838;8.828;2023-02-13T18:07:30;2.80;99.90
67750;DHT22;54550;48.838;8.828;2023-02-13T18:09:56;2.70;99.90
67750;DHT22;54550;48.838;8.828;2023-02-13T18:12:23;2.60;99.90
67750;DHT22;54550;48.838;8.828;2023-02-13T18:14:49;2.50;99.90
67750;DHT22;54550;48.838;8.828;2023-02-13T18:17:15;2.40;99.90
67750;DHT22;54550;48.838;8.828;2023-02-13T18:19:41;2.30;99.90
67750;DHT22;54550;48.838;8.828;2023-02-13T18:22:08;2.30;99.90
67750;DHT22;54550;48.838;8.828;2023-02-13T18:24:36;2.20;99.90
67750;DHT22;54550;48.838;8.828;2023-02-13T18:27:02;2.10;99.90
67750;DHT22;54550;48.838;8.828;2023-02-13T18:29:27;2.10;99.90
67750;DHT22;54550;48.838;8.828;2023-02-13T18:31:53;2.00;99.90
67750;DHT22;54550;48.838;8.828;2023-02-13T18:34:20;1.90;99.90
67750;DHT22;54550;48.838;8.828;2023-02-13T18:36:46;1.90;99.90
67750;DHT22;54550;48.838;8.828;2023-02-13T18:39:12;2.00;99.90